Time,TemperatureF,DewpointF,PressureIn,WindDirection,WindDirectionDegrees,WindSpeedMPH,WindSpeedGustMPH,Humidity,HourlyPrecipIn,Conditions,Clouds,dailyrainin,SoftwareType,DateUTC
2013-01-08 00:00:00,53.0,-99.9,30.03,ENE,61,15.0,17.0,-999,-99.99,,,-99.99,,2013-01-08 06:00:00,
2013-01-08 00:33:00,53.0,-99.9,30.03,ENE,61,15.0,17.0,-999,-99.99,,,-99.99,,2013-01-08 06:33:00,
2013-01-08 00:43:00,53.0,-99.9,30.03,ENE,61,15.0,17.0,-999,-99.99,,,-99.99,,2013-01-08 06:43:00,
2013-01-08 00:53:00,53.0,-99.9,30.03,ENE,61,15.0,17.0,-999,-99.99,,,-99.99,,2013-01-08 06:53:00,
2013-01-08 01:00:00,54.0,-99.9,29.99,ENE,61,19.0,22.0,-999,-99.99,,,-99.99,,2013-01-08 07:00:00,
2013-01-08 01:32:00,54.0,-99.9,29.99,ENE,61,19.0,22.0,-999,-99.99,,,-99.99,,2013-01-08 07:32:00,
2013-01-08 01:42:00,54.0,-99.9,29.99,ENE,61,19.0,22.0,-999,-99.99,,,-99.99,,2013-01-08 07:42:00,
2013-01-08 01:53:00,54.0,-99.9,29.99,ENE,61,19.0,22.0,-999,-99.99,,,-99.99,,2013-01-08 07:53:00,
2013-01-08 02:00:00,55.0,-99.9,29.96,ENE,69,18.0,21.0,-999,-99.99,,,-99.99,,2013-01-08 08:00:00,
2013-01-08 02:33:00,55.0,-99.9,29.96,ENE,69,18.0,21.0,-999,-99.99,,,-99.99,,2013-01-08 08:33:00,
2013-01-08 02:42:00,55.0,-99.9,29.96,ENE,69,18.0,21.0,-999,-99.99,,,-99.99,,2013-01-08 08:42:00,
2013-01-08 02:53:00,55.0,-99.9,29.96,ENE,69,18.0,21.0,-999,-99.99,,,-99.99,,2013-01-08 08:53:00,
2013-01-08 03:00:00,55.0,-99.9,29.96,ENE,61,17.0,20.0,-999,-99.99,,,-99.99,,2013-01-08 09:00:00,
2013-01-08 03:33:00,55.0,-99.9,29.96,ENE,61,17.0,20.0,-999,-99.99,,,-99.99,,2013-01-08 09:33:00,
2013-01-08 03:42:00,55.0,-99.9,29.96,ENE,61,17.0,20.0,-999,-99.99,,,-99.99,,2013-01-08 09:42:00,
2013-01-08 03:53:00,55.0,-99.9,29.96,ENE,61,17.0,20.0,-999,-99.99,,,-99.99,,2013-01-08 09:53:00,
2013-01-08 04:00:00,56.0,-99.9,29.93,ENE,63,21.0,23.0,-999,-99.99,,,-99.99,,2013-01-08 10:00:00,
2013-01-08 04:22:00,56.0,-99.9,29.93,ENE,63,21.0,23.0,-999,-99.99,,,-99.99,,2013-01-08 10:22:00,
2013-01-08 04:33:00,56.0,-99.9,29.93,ENE,63,21.0,23.0,-999,-99.99,,,-99.99,,2013-01-08 10:33:00,
2013-01-08 04:43:00,56.0,-99.9,29.93,ENE,63,21.0,23.0,-999,-99.99,,,-99.99,,2013-01-08 10:43:00,
2013-01-08 04:53:00,56.0,-99.9,29.93,ENE,63,21.0,23.0,-999,-99.99,,,-99.99,,2013-01-08 10:53:00,
2013-01-08 05:00:00,56.0,-99.9,29.96,NNW,332,11.0,15.0,-999,-99.99,,,-99.99,,2013-01-08 11:00:00,
2013-01-08 05:33:00,56.0,-99.9,29.96,NNW,332,11.0,15.0,-999,-99.99,,,-99.99,,2013-01-08 11:33:00,
2013-01-08 05:43:00,56.0,-99.9,29.96,NNW,332,11.0,15.0,-999,-99.99,,,-99.99,,2013-01-08 11:43:00,
2013-01-08 05:53:00,56.0,-99.9,29.96,NNW,332,11.0,15.0,-999,-99.99,,,-99.99,,2013-01-08 11:53:00,
2013-01-08 06:00:00,57.0,-99.9,29.86,East,85,19.0,24.0,-999,-99.99,,,-99.99,,2013-01-08 12:00:00,
2013-01-08 06:33:00,57.0,-99.9,29.86,East,85,19.0,24.0,-999,-99.99,,,-99.99,,2013-01-08 12:33:00,
2013-01-08 06:43:00,57.0,-99.9,29.86,East,85,19.0,24.0,-999,-99.99,,,-99.99,,2013-01-08 12:43:00,
2013-01-08 06:53:00,57.0,-99.9,29.86,East,85,19.0,24.0,-999,-99.99,,,-99.99,,2013-01-08 12:53:00,
2013-01-08 07:00:00,57.0,-99.9,29.90,ENE,70,13.0,15.0,-999,-99.99,,,-99.99,,2013-01-08 13:00:00,
2013-01-08 07:33:00,57.0,-99.9,29.90,ENE,70,13.0,15.0,-999,-99.99,,,-99.99,,2013-01-08 13:33:00,
2013-01-08 07:43:00,57.0,-99.9,29.90,ENE,70,13.0,15.0,-999,-99.99,,,-99.99,,2013-01-08 13:43:00,
2013-01-08 07:53:00,57.0,-99.9,29.90,ENE,70,13.0,15.0,-999,-99.99,,,-99.99,,2013-01-08 13:53:00,
2013-01-08 08:00:00,58.0,-99.9,29.93,ENE,78,10.0,12.0,-999,-99.99,,,-99.99,,2013-01-08 14:00:00,
2013-01-08 08:33:00,58.0,-99.9,29.93,ENE,78,10.0,12.0,-999,-99.99,,,-99.99,,2013-01-08 14:33:00,
2013-01-08 08:43:00,58.0,-99.9,29.93,ENE,78,10.0,12.0,-999,-99.99,,,-99.99,,2013-01-08 14:43:00,
2013-01-08 08:53:00,58.0,-99.9,29.93,ENE,78,10.0,12.0,-999,-99.99,,,-99.99,,2013-01-08 14:53:00,
2013-01-08 09:00:00,58.0,-99.9,29.95,East,82,11.0,12.0,-999,-99.99,,,-99.99,,2013-01-08 15:00:00,
2013-01-08 09:33:00,58.0,-99.9,29.95,East,82,11.0,12.0,-999,-99.99,,,-99.99,,2013-01-08 15:33:00,
2013-01-08 09:43:00,58.0,-99.9,29.95,East,82,11.0,12.0,-999,-99.99,,,-99.99,,2013-01-08 15:43:00,
2013-01-08 09:53:00,58.0,-99.9,29.95,East,82,11.0,12.0,-999,-99.99,,,-99.99,,2013-01-08 15:53:00,
2013-01-08 10:00:00,58.0,-99.9,29.95,East,94,6.0,8.0,-999,-99.99,,,-99.99,,2013-01-08 16:00:00,
2013-01-08 10:34:00,58.0,-99.9,29.95,East,94,6.0,8.0,-999,-99.99,,,-99.99,,2013-01-08 16:34:00,
2013-01-08 10:43:00,58.0,-99.9,29.95,East,94,6.0,8.0,-999,-99.99,,,-99.99,,2013-01-08 16:43:00,
2013-01-08 10:53:00,58.0,-99.9,29.95,East,94,6.0,8.0,-999,-99.99,,,-99.99,,2013-01-08 16:53:00,
2013-01-08 11:00:00,60.0,-99.9,29.94,ESE,111,6.0,8.0,-999,-99.99,,,-99.99,,2013-01-08 17:00:00,
2013-01-08 11:34:00,60.0,-99.9,29.94,ESE,111,6.0,8.0,-999,-99.99,,,-99.99,,2013-01-08 17:34:00,
2013-01-08 11:43:00,60.0,-99.9,29.94,ESE,111,6.0,8.0,-999,-99.99,,,-99.99,,2013-01-08 17:43:00,
2013-01-08 11:54:00,60.0,-99.9,29.94,ESE,111,6.0,8.0,-999,-99.99,,,-99.99,,2013-01-08 17:54:00,
2013-01-08 12:00:00,60.0,-99.9,29.91,ESE,118,8.0,9.0,-999,-99.99,,,-99.99,,2013-01-08 18:00:00,
2013-01-08 12:24:00,60.0,-99.9,29.91,ESE,118,8.0,9.0,-999,-99.99,,,-99.99,,2013-01-08 18:24:00,
2013-01-08 12:33:00,60.0,-99.9,29.91,ESE,118,8.0,9.0,-999,-99.99,,,-99.99,,2013-01-08 18:33:00,
2013-01-08 12:43:00,60.0,-99.9,29.91,ESE,118,8.0,9.0,-999,-99.99,,,-99.99,,2013-01-08 18:43:00,
2013-01-08 12:53:00,60.0,-99.9,29.91,ESE,118,8.0,9.0,-999,-99.99,,,-99.99,,2013-01-08 18:53:00,
2013-01-08 13:00:00,62.0,-99.9,29.87,SE,145,11.0,14.0,-999,-99.99,,,-99.99,,2013-01-08 19:00:00,
2013-01-08 13:33:00,62.0,-99.9,29.87,SE,145,11.0,14.0,-999,-99.99,,,-99.99,,2013-01-08 19:33:00,
2013-01-08 13:43:00,62.0,-99.9,29.87,SE,145,11.0,14.0,-999,-99.99,,,-99.99,,2013-01-08 19:43:00,
2013-01-08 13:53:00,62.0,-99.9,29.87,SE,145,11.0,14.0,-999,-99.99,,,-99.99,,2013-01-08 19:53:00,
2013-01-08 14:00:00,60.0,-99.9,29.85,NNE,17,3.0,3.0,-999,-99.99,,,-99.99,,2013-01-08 20:00:00,
2013-01-08 14:33:00,60.0,-99.9,29.85,NNE,17,3.0,3.0,-999,-99.99,,,-99.99,,2013-01-08 20:33:00,
2013-01-08 14:43:00,60.0,-99.9,29.85,NNE,17,3.0,3.0,-999,-99.99,,,-99.99,,2013-01-08 20:43:00,
2013-01-08 14:54:00,60.0,-99.9,29.85,NNE,17,3.0,3.0,-999,-99.99,,,-99.99,,2013-01-08 20:54:00,
2013-01-08 15:00:00,58.0,-99.9,29.87,ENE,67,6.0,6.0,-999,-99.99,,,-99.99,,2013-01-08 21:00:00,
2013-01-08 15:33:00,58.0,-99.9,29.87,ENE,67,6.0,6.0,-999,-99.99,,,-99.99,,2013-01-08 21:33:00,
2013-01-08 15:43:00,58.0,-99.9,29.87,ENE,67,6.0,6.0,-999,-99.99,,,-99.99,,2013-01-08 21:43:00,
2013-01-08 15:53:00,58.0,-99.9,29.87,ENE,67,6.0,6.0,-999,-99.99,,,-99.99,,2013-01-08 21:53:00,
2013-01-08 16:00:00,60.0,-99.9,29.84,ENE,65,11.0,11.0,-999,-99.99,,,-99.99,,2013-01-08 22:00:00,
2013-01-08 16:33:00,60.0,-99.9,29.84,ENE,65,11.0,11.0,-999,-99.99,,,-99.99,,2013-01-08 22:33:00,
2013-01-08 16:43:00,60.0,-99.9,29.84,ENE,65,11.0,11.0,-999,-99.99,,,-99.99,,2013-01-08 22:43:00,
2013-01-08 16:53:00,60.0,-99.9,29.84,ENE,65,11.0,11.0,-999,-99.99,,,-99.99,,2013-01-08 22:53:00,
2013-01-08 17:00:00,60.0,-99.9,29.86,ESE,112,15.0,17.0,-999,-99.99,,,-99.99,,2013-01-08 23:00:00,
2013-01-08 17:33:00,60.0,-99.9,29.86,ESE,112,15.0,17.0,-999,-99.99,,,-99.99,,2013-01-08 23:33:00,
2013-01-08 17:43:00,60.0,-99.9,29.86,ESE,112,15.0,17.0,-999,-99.99,,,-99.99,,2013-01-08 23:43:00,
2013-01-08 17:53:00,60.0,-99.9,29.86,ESE,112,15.0,17.0,-999,-99.99,,,-99.99,,2013-01-08 23:53:00,
2013-01-08 18:00:00,60.0,-99.9,29.83,ESE,102,11.0,12.0,-999,-99.99,,,-99.99,,2013-01-09 00:00:00,
2013-01-08 18:33:00,60.0,-99.9,29.83,ESE,102,11.0,12.0,-999,-99.99,,,-99.99,,2013-01-09 00:33:00,
2013-01-08 18:43:00,60.0,-99.9,29.83,ESE,102,11.0,12.0,-999,-99.99,,,-99.99,,2013-01-09 00:43:00,
2013-01-08 18:53:00,60.0,-99.9,29.83,ESE,102,11.0,12.0,-999,-99.99,,,-99.99,,2013-01-09 00:53:00,
2013-01-08 19:00:00,59.0,-99.9,29.83,East,95,10.0,11.0,-999,-99.99,,,-99.99,,2013-01-09 01:00:00,
2013-01-08 19:33:00,59.0,-99.9,29.83,East,95,10.0,11.0,-999,-99.99,,,-99.99,,2013-01-09 01:33:00,
2013-01-08 19:43:00,59.0,-99.9,29.83,East,95,10.0,11.0,-999,-99.99,,,-99.99,,2013-01-09 01:43:00,
2013-01-08 19:53:00,59.0,-99.9,29.83,East,95,10.0,11.0,-999,-99.99,,,-99.99,,2013-01-09 01:53:00,
2013-01-08 20:00:00,59.0,-99.9,29.85,East,93,6.0,7.0,-999,-99.99,,,-99.99,,2013-01-09 02:00:00,
2013-01-08 20:33:00,59.0,-99.9,29.85,East,93,6.0,7.0,-999,-99.99,,,-99.99,,2013-01-09 02:33:00,
2013-01-08 20:43:00,59.0,-99.9,29.85,East,93,6.0,7.0,-999,-99.99,,,-99.99,,2013-01-09 02:43:00,
2013-01-08 20:53:00,59.0,-99.9,29.85,East,93,6.0,7.0,-999,-99.99,,,-99.99,,2013-01-09 02:53:00,
2013-01-08 21:00:00,59.0,-99.9,29.86,ESE,103,11.0,12.0,-999,-99.99,,,-99.99,,2013-01-09 03:00:00,
2013-01-08 21:33:00,59.0,-99.9,29.86,ESE,103,11.0,12.0,-999,-99.99,,,-99.99,,2013-01-09 03:33:00,
2013-01-08 21:43:00,59.0,-99.9,29.86,ESE,103,11.0,12.0,-999,-99.99,,,-99.99,,2013-01-09 03:43:00,
2013-01-08 21:53:00,59.0,-99.9,29.86,ESE,103,11.0,12.0,-999,-99.99,,,-99.99,,2013-01-09 03:53:00,
2013-01-08 22:00:00,60.0,-99.9,29.83,ESE,106,23.0,26.0,-999,-99.99,,,-99.99,,2013-01-09 04:00:00,
2013-01-08 22:33:00,60.0,-99.9,29.83,ESE,106,23.0,26.0,-999,-99.99,,,-99.99,,2013-01-09 04:33:00,
2013-01-08 22:43:00,60.0,-99.9,29.83,ESE,106,23.0,26.0,-999,-99.99,,,-99.99,,2013-01-09 04:43:00,
2013-01-08 22:53:00,60.0,-99.9,29.83,ESE,106,23.0,26.0,-999,-99.99,,,-99.99,,2013-01-09 04:53:00,
2013-01-08 23:00:00,60.0,-99.9,29.88,ESE,106,13.0,15.0,-999,-99.99,,,-99.99,,2013-01-09 05:00:00,
2013-01-08 23:33:00,60.0,-99.9,29.88,ESE,106,13.0,15.0,-999,-99.99,,,-99.99,,2013-01-09 05:33:00,
2013-01-08 23:43:00,60.0,-99.9,29.88,ESE,106,13.0,15.0,-999,-99.99,,,-99.99,,2013-01-09 05:43:00,
2013-01-08 23:53:00,60.0,-99.9,29.88,ESE,106,13.0,15.0,-999,-99.99,,,-99.99,,2013-01-09 05:53:00,